sensor_id;sensor_type;location;lat;lon;timestamp;temperature;humidity
4501;DHT22;2263;54.654;9.410;2023-02-28T00:00:48;5.30;92.50
4501;DHT22;2263;54.654;9.410;2023-02-28T00:03:32;5.20;92.40
4501;DHT22;2263;54.654;9.410;2023-02-28T00:06:19;5.20;92.40
4501;DHT22;2263;54.654;9.410;2023-02-28T00:09:04;5.20;92.40
4501;DHT22;2263;54.654;9.410;2023-02-28T00:11:49;5.20;92.40
4501;DHT22;2263;54.654;9.410;2023-02-28T00:14:33;5.20;92.40
4501;DHT22;2263;54.654;9.410;2023-02-28T00:17:18;5.20;92.40
4501;DHT22;2263;54.654;9.410;2023-02-28T00:20:06;5.20;92.40
4501;DHT22;2263;54.654;9.410;2023-02-28T00:22:57;5.20;92.40
4501;DHT22;2263;54.654;9.410;2023-02-28T00:25:41;5.20;92.40
4501;DHT22;2263;54.654;9.410;2023-02-28T00:28:26;5.20;92.50
4501;DHT22;2263;54.654;9.410;2023-02-28T00:31:10;5.20;92.50
4501;DHT22;2263;54.654;9.410;2023-02-28T00:33:55;5.20;92.50
4501;DHT22;2263;54.654;9.410;2023-02-28T00:36:39;5.20;92.50
4501;DHT22;2263;54.654;9.410;2023-02-28T00:39:27;5.20;92.50
4501;DHT22;2263;54.654;9.410;2023-02-28T00:42:12;5.20;92.80
4501;DHT22;2263;54.654;9.410;2023-02-28T00:44:56;5.20;92.50
4501;DHT22;2263;54.654;9.410;2023-02-28T00:47:40;5.20;92.50
4501;DHT22;2263;54.654;9.410;2023-02-28T00:50:25;5.20;92.50
4501;DHT22;2263;54.654;9.410;2023-02-28T00:53:09;5.20;92.50
4501;DHT22;2263;54.654;9.410;2023-02-28T00:55:53;5.20;92.50
4501;DHT22;2263;54.654;9.410;2023-02-28T00:58:38;5.20;92.40
4501;DHT22;2263;54.654;9.410;2023-02-28T01:01:22;5.20;92.50
4501;DHT22;2263;54.654;9.410;2023-02-28T01:04:07;5.20;92.60
4501;DHT22;2263;54.654;9.410;2023-02-28T01:06:51;5.20;92.60
4501;DHT22;2263;54.654;9.410;2023-02-28T01:09:36;5.20;92.50
4501;DHT22;2263;54.654;9.410;2023-02-28T01:12:20;5.20;92.50
4501;DHT22;2263;54.654;9.410;2023-02-28T01:15:05;5.20;92.50
4501;DHT22;2263;54.654;9.410;2023-02-28T01:17:50;5.10;92.50
4501;DHT22;2263;54.654;9.410;2023-02-28T01:20:36;5.20;92.60
4501;DHT22;2263;54.654;9.410;2023-02-28T01:23:22;5.10;92.60
4501;DHT22;2263;54.654;9.410;2023-02-28T01:26:13;5.10;92.50
4501;DHT22;2263;54.654;9.410;2023-02-28T01:28:58;5.10;92.50
4501;DHT22;2263;54.654;9.410;2023-02-28T01:31:43;5.10;92.50
4501;DHT22;2263;54.654;9.410;2023-02-28T01:34:27;5.10;92.50
4501;DHT22;2263;54.654;9.410;2023-02-28T01:37:12;5.10;92.40
4501;DHT22;2263;54.654;9.410;2023-02-28T01:39:56;5.10;92.50
4501;DHT22;2263;54.654;9.410;2023-02-28T01:42:40;5.10;92.40
4501;DHT22;2263;54.654;9.410;2023-02-28T01:45:30;5.10;92.50
4501;DHT22;2263;54.654;9.410;2023-02-28T01:48:14;5.10;92.50
4501;DHT22;2263;54.654;9.410;2023-02-28T01:51:04;5.10;92.60
4501;DHT22;2263;54.654;9.410;2023-02-28T01:53:54;5.10;92.60
4501;DHT22;2263;54.654;9.410;2023-02-28T01:56:54;5.10;92.50
4501;DHT22;2263;54.654;9.410;2023-02-28T01:59:43;5.10;92.50
4501;DHT22;2263;54.654;9.410;2023-02-28T02:02:36;5.10;92.30
4501;DHT22;2263;54.654;9.410;2023-02-28T02:05:27;5.10;92.40
4501;DHT22;2263;54.654;9.410;2023-02-28T02:08:18;5.00;92.40
4501;DHT22;2263;54.654;9.410;2023-02-28T02:11:03;5.00;92.50
4501;DHT22;2263;54.654;9.410;2023-02-28T02:17:10;5.00;92.30
4501;DHT22;2263;54.654;9.410;2023-02-28T02:29:05;4.90;92.20
4501;DHT22;2263;54.654;9.410;2023-02-28T02:38:06;4.90;91.50
4501;DHT22;2263;54.654;9.410;2023-02-28T02:44:10;4.90;91.50
4501;DHT22;2263;54.654;9.410;2023-02-28T02:47:20;4.80;91.70
4501;DHT22;2263;54.654;9.410;2023-02-28T02:50:10;4.80;91.70
4501;DHT22;2263;54.654;9.410;2023-02-28T02:53:00;4.80;91.80
4501;DHT22;2263;54.654;9.410;2023-02-28T02:55:47;4.80;91.70
4501;DHT22;2263;54.654;9.410;2023-02-28T02:58:40;4.80;91.70
4501;DHT22;2263;54.654;9.410;2023-02-28T03:01:26;4.80;91.60
4501;DHT22;2263;54.654;9.410;2023-02-28T03:04:17;4.80;91.50
4501;DHT22;2263;54.654;9.410;2023-02-28T03:07:02;4.70;91.60
4501;DHT22;2263;54.654;9.410;2023-02-28T03:09:51;4.70;91.40
4501;DHT22;2263;54.654;9.410;2023-02-28T03:12:42;4.70;91.20
4501;DHT22;2263;54.654;9.410;2023-02-28T03:15:53;4.70;91.30
4501;DHT22;2263;54.654;9.410;2023-02-28T03:25:00;4.60;91.20
4501;DHT22;2263;54.654;9.410;2023-02-28T03:31:16;4.60;91.20
4501;DHT22;2263;54.654;9.410;2023-02-28T03:34:17;4.60;91.30
4501;DHT22;2263;54.654;9.410;2023-02-28T03:37:08;4.50;91.20
4501;DHT22;2263;54.654;9.410;2023-02-28T03:40:22;4.50;91.10
4501;DHT22;2263;54.654;9.410;2023-02-28T03:43:10;4.50;91.10
4501;DHT22;2263;54.654;9.410;2023-02-28T03:45:59;4.50;91.10
4501;DHT22;2263;54.654;9.410;2023-02-28T03:51:38;4.50;90.80
4501;DHT22;2263;54.654;9.410;2023-02-28T03:54:33;4.40;90.80
4501;DHT22;2263;54.654;9.410;2023-02-28T03:57:45;4.40;90.80
4501;DHT22;2263;54.654;9.410;2023-02-28T04:00:37;4.40;90.80
4501;DHT22;2263;54.654;9.410;2023-02-28T04:03:23;4.40;90.70
4501;DHT22;2263;54.654;9.410;2023-02-28T04:06:17;4.30;90.60
4501;DHT22;2263;54.654;9.410;2023-02-28T04:09:03;4.30;90.40
4501;DHT22;2263;54.654;9.410;2023-02-28T04:11:53;4.30;90.50
4501;DHT22;2263;54.654;9.410;2023-02-28T04:14:39;4.30;90.40
4501;DHT22;2263;54.654;9.410;2023-02-28T04:17:24;4.30;90.70
4501;DHT22;2263;54.654;9.410;2023-02-28T04:20:09;4.20;90.40
4501;DHT22;2263;54.654;9.410;2023-02-28T04:22:53;4.20;90.40
4501;DHT22;2263;54.654;9.410;2023-02-28T04:25:38;4.20;90.20
4501;DHT22;2263;54.654;9.410;2023-02-28T04:28:24;4.20;90.20
4501;DHT22;2263;54.654;9.410;2023-02-28T04:31:09;4.10;90.10
4501;DHT22;2263;54.654;9.410;2023-02-28T04:33:53;4.10;90.20
4501;DHT22;2263;54.654;9.410;2023-02-28T04:36:38;4.10;90.40
4501;DHT22;2263;54.654;9.410;2023-02-28T04:39:23;4.10;90.30
4501;DHT22;2263;54.654;9.410;2023-02-28T04:42:08;4.10;90.10
4501;DHT22;2263;54.654;9.410;2023-02-28T04:44:53;4.10;90.30
4501;DHT22;2263;54.654;9.410;2023-02-28T04:47:37;4.00;90.00
4501;DHT22;2263;54.654;9.410;2023-02-28T04:50:22;4.00;89.90
4501;DHT22;2263;54.654;9.410;2023-02-28T04:53:06;4.00;90.40
4501;DHT22;2263;54.654;9.410;2023-02-28T04:55:50;4.00;89.80
4501;DHT22;2263;54.654;9.410;2023-02-28T04:58:35;4.00;90.20
4501;DHT22;2263;54.654;9.410;2023-02-28T05:04:04;4.00;90.30
4501;DHT22;2263;54.654;9.410;2023-02-28T05:06:48;3.90;90.00
4501;DHT22;2263;54.654;9.410;2023-02-28T05:09:32;3.90;90.00
4501;DHT22;2263;54.654;9.410;2023-02-28T05:12:17;3.90;89.50
4501;DHT22;2263;54.654;9.410;2023-02-28T05:15:02;3.90;90.10
4501;DHT22;2263;54.654;9.410;2023-02-28T05:17:46;3.90;90.00
4501;DHT22;2263;54.654;9.410;2023-02-28T05:20:31;3.80;89.70
4501;DHT22;2263;54.654;9.410;2023-02-28T05:23:16;3.80;89.80
4501;DHT22;2263;54.654;9.410;2023-02-28T05:26:02;3.80;90.00
4501;DHT22;2263;54.654;9.410;2023-02-28T05:28:47;3.80;89.70
4501;DHT22;2263;54.654;9.410;2023-02-28T05:31:31;3.80;90.00
4501;DHT22;2263;54.654;9.410;2023-02-28T05:34:16;3.80;90.10
4501;DHT22;2263;54.654;9.410;2023-02-28T05:37:01;3.80;90.00
4501;DHT22;2263;54.654;9.410;2023-02-28T05:39:45;3.80;90.10
4501;DHT22;2263;54.654;9.410;2023-02-28T05:42:30;3.70;90.00
4501;DHT22;2263;54.654;9.410;2023-02-28T05:45:14;3.70;90.00
4501;DHT22;2263;54.654;9.410;2023-02-28T05:47:59;3.70;90.10
4501;DHT22;2263;54.654;9.410;2023-02-28T05:50:44;3.70;90.00
4501;DHT22;2263;54.654;9.410;2023-02-28T05:53:30;3.70;89.90
4501;DHT22;2263;54.654;9.410;2023-02-28T05:56:15;3.70;90.00
4501;DHT22;2263;54.654;9.410;2023-02-28T05:58:59;3.60;89.30
4501;DHT22;2263;54.654;9.410;2023-02-28T06:01:45;3.60;89.30
4501;DHT22;2263;54.654;9.410;2023-02-28T06:04:32;3.60;89.10
4501;DHT22;2263;54.654;9.410;2023-02-28T06:07:16;3.50;89.20
4501;DHT22;2263;54.654;9.410;2023-02-28T06:10:01;3.50;89.40
4501;DHT22;2263;54.654;9.410;2023-02-28T06:12:46;3.50;89.20
4501;DHT22;2263;54.654;9.410;2023-02-28T06:15:31;3.50;89.40
4501;DHT22;2263;54.654;9.410;2023-02-28T06:18:15;3.50;89.20
4501;DHT22;2263;54.654;9.410;2023-02-28T06:20:59;3.50;89.20
4501;DHT22;2263;54.654;9.410;2023-02-28T06:23:44;3.50;89.40
4501;DHT22;2263;54.654;9.410;2023-02-28T06:26:28;3.40;88.90
4501;DHT22;2263;54.654;9.410;2023-02-28T06:29:14;3.40;89.20
4501;DHT22;2263;54.654;9.410;2023-02-28T06:32:02;3.40;88.90
4501;DHT22;2263;54.654;9.410;2023-02-28T06:34:47;3.40;88.70
4501;DHT22;2263;54.654;9.410;2023-02-28T06:37:32;3.40;89.00
4501;DHT22;2263;54.654;9.410;2023-02-28T06:40:17;3.40;88.80
4501;DHT22;2263;54.654;9.410;2023-02-28T06:43:01;3.40;88.50
4501;DHT22;2263;54.654;9.410;2023-02-28T06:45:46;3.30;88.80
4501;DHT22;2263;54.654;9.410;2023-02-28T06:48:30;3.20;88.80
4501;DHT22;2263;54.654;9.410;2023-02-28T06:51:19;3.20;89.10
4501;DHT22;2263;54.654;9.410;2023-02-28T06:54:06;3.20;89.30
4501;DHT22;2263;54.654;9.410;2023-02-28T06:56:53;3.20;89.70
4501;DHT22;2263;54.654;9.410;2023-02-28T06:59:38;3.20;89.70
4501;DHT22;2263;54.654;9.410;2023-02-28T07:02:22;3.20;89.30
4501;DHT22;2263;54.654;9.410;2023-02-28T07:05:07;3.20;89.20
4501;DHT22;2263;54.654;9.410;2023-02-28T07:07:51;3.20;89.30
4501;DHT22;2263;54.654;9.410;2023-02-28T07:10:39;3.20;89.30
4501;DHT22;2263;54.654;9.410;2023-02-28T07:13:24;3.20;89.40
4501;DHT22;2263;54.654;9.410;2023-02-28T07:16:10;3.20;89.40
4501;DHT22;2263;54.654;9.410;2023-02-28T07:18:55;3.20;89.50
4501;DHT22;2263;54.654;9.410;2023-02-28T07:21:39;3.20;89.90
4501;DHT22;2263;54.654;9.410;2023-02-28T07:24:23;3.20;89.70
4501;DHT22;2263;54.654;9.410;2023-02-28T07:27:11;3.20;89.70
4501;DHT22;2263;54.654;9.410;2023-02-28T07:29:56;3.20;90.00
4501;DHT22;2263;54.654;9.410;2023-02-28T07:32:41;3.20;90.00
4501;DHT22;2263;54.654;9.410;2023-02-28T07:35:25;3.20;90.10
4501;DHT22;2263;54.654;9.410;2023-02-28T07:38:10;3.20;90.00
4501;DHT22;2263;54.654;9.410;2023-02-28T07:40:55;3.20;90.20
4501;DHT22;2263;54.654;9.410;2023-02-28T07:43:40;3.20;90.20
4501;DHT22;2263;54.654;9.410;2023-02-28T07:46:24;3.20;90.30
4501;DHT22;2263;54.654;9.410;2023-02-28T07:49:09;3.30;90.20
4501;DHT22;2263;54.654;9.410;2023-02-28T07:51:53;3.30;90.10
4501;DHT22;2263;54.654;9.410;2023-02-28T07:54:38;3.40;90.10
4501;DHT22;2263;54.654;9.410;2023-02-28T07:57:22;3.40;90.10
4501;DHT22;2263;54.654;9.410;2023-02-28T08:00:09;3.40;90.20
4501;DHT22;2263;54.654;9.410;2023-02-28T08:02:54;3.50;90.30
4501;DHT22;2263;54.654;9.410;2023-02-28T08:05:39;3.50;90.40
4501;DHT22;2263;54.654;9.410;2023-02-28T08:08:24;3.60;90.30
4501;DHT22;2263;54.654;9.410;2023-02-28T08:11:08;3.60;90.40
4501;DHT22;2263;54.654;9.410;2023-02-28T08:13:54;3.60;90.50
4501;DHT22;2263;54.654;9.410;2023-02-28T08:16:39;3.70;90.70
4501;DHT22;2263;54.654;9.410;2023-02-28T08:19:23;3.70;90.70
4501;DHT22;2263;54.654;9.410;2023-02-28T08:22:08;3.70;90.80
4501;DHT22;2263;54.654;9.410;2023-02-28T08:24:52;3.80;90.90
4501;DHT22;2263;54.654;9.410;2023-02-28T08:27:36;3.80;90.90
4501;DHT22;2263;54.654;9.410;2023-02-28T08:30:21;3.80;91.00
4501;DHT22;2263;54.654;9.410;2023-02-28T08:33:05;3.80;91.00
4501;DHT22;2263;54.654;9.410;2023-02-28T08:35:55;3.90;91.10
4501;DHT22;2263;54.654;9.410;2023-02-28T08:38:40;3.90;91.20
4501;DHT22;2263;54.654;9.410;2023-02-28T08:41:24;4.00;91.30
4501;DHT22;2263;54.654;9.410;2023-02-28T08:44:09;4.00;91.30
4501;DHT22;2263;54.654;9.410;2023-02-28T08:46:53;4.00;91.30
4501;DHT22;2263;54.654;9.410;2023-02-28T08:49:38;4.00;91.40
4501;DHT22;2263;54.654;9.410;2023-02-28T08:52:22;4.10;91.60
4501;DHT22;2263;54.654;9.410;2023-02-28T08:55:07;4.10;91.70
4501;DHT22;2263;54.654;9.410;2023-02-28T08:57:53;4.20;91.90
4501;DHT22;2263;54.654;9.410;2023-02-28T09:00:38;4.20;91.80
4501;DHT22;2263;54.654;9.410;2023-02-28T09:03:23;4.20;91.90
4501;DHT22;2263;54.654;9.410;2023-02-28T09:06:09;4.20;92.00
4501;DHT22;2263;54.654;9.410;2023-02-28T09:08:57;4.30;92.00
4501;DHT22;2263;54.654;9.410;2023-02-28T09:11:45;4.30;92.10
4501;DHT22;2263;54.654;9.410;2023-02-28T09:14:29;4.40;92.20
4501;DHT22;2263;54.654;9.410;2023-02-28T09:17:14;4.40;92.30
4501;DHT22;2263;54.654;9.410;2023-02-28T09:19:58;4.40;92.50
4501;DHT22;2263;54.654;9.410;2023-02-28T09:22:43;4.40;92.40
4501;DHT22;2263;54.654;9.410;2023-02-28T09:25:27;4.50;92.60
4501;DHT22;2263;54.654;9.410;2023-02-28T09:28:12;4.50;92.60
4501;DHT22;2263;54.654;9.410;2023-02-28T09:30:56;4.60;92.80
4501;DHT22;2263;54.654;9.410;2023-02-28T09:33:43;4.60;92.70
4501;DHT22;2263;54.654;9.410;2023-02-28T09:36:27;4.60;92.70
4501;DHT22;2263;54.654;9.410;2023-02-28T09:39:13;4.70;92.80
4501;DHT22;2263;54.654;9.410;2023-02-28T09:41:59;4.70;92.70
4501;DHT22;2263;54.654;9.410;2023-02-28T09:44:46;4.70;92.80
4501;DHT22;2263;54.654;9.410;2023-02-28T09:47:36;4.80;93.00
4501;DHT22;2263;54.654;9.410;2023-02-28T09:50:38;5.00;93.60
4501;DHT22;2263;54.654;9.410;2023-02-28T09:53:31;5.50;93.30
4501;DHT22;2263;54.654;9.410;2023-02-28T09:56:25;5.80;93.10
4501;DHT22;2263;54.654;9.410;2023-02-28T10:02:28;6.20;93.00
4501;DHT22;2263;54.654;9.410;2023-02-28T10:05:24;6.30;93.20
4501;DHT22;2263;54.654;9.410;2023-02-28T10:08:37;6.40;92.90
4501;DHT22;2263;54.654;9.410;2023-02-28T10:11:27;6.50;93.10
4501;DHT22;2263;54.654;9.410;2023-02-28T10:14:16;6.50;92.80
4501;DHT22;2263;54.654;9.410;2023-02-28T10:17:05;6.60;92.80
4501;DHT22;2263;54.654;9.410;2023-02-28T10:20:28;6.70;92.80
4501;DHT22;2263;54.654;9.410;2023-02-28T10:23:28;6.70;92.90
4501;DHT22;2263;54.654;9.410;2023-02-28T10:26:21;6.80;93.30
4501;DHT22;2263;54.654;9.410;2023-02-28T10:29:08;6.90;93.10
4501;DHT22;2263;54.654;9.410;2023-02-28T10:31:53;7.00;92.90
4501;DHT22;2263;54.654;9.410;2023-02-28T10:34:37;7.00;92.80
4501;DHT22;2263;54.654;9.410;2023-02-28T10:37:22;7.00;92.80
4501;DHT22;2263;54.654;9.410;2023-02-28T10:40:26;7.00;92.80
4501;DHT22;2263;54.654;9.410;2023-02-28T10:49:04;7.10;92.80
4501;DHT22;2263;54.654;9.410;2023-02-28T10:51:57;7.20;92.80
4501;DHT22;2263;54.654;9.410;2023-02-28T10:54:42;7.30;92.70
4501;DHT22;2263;54.654;9.410;2023-02-28T10:57:30;7.30;92.80
4501;DHT22;2263;54.654;9.410;2023-02-28T11:03:01;7.40;92.90
4501;DHT22;2263;54.654;9.410;2023-02-28T11:05:48;7.40;93.00
4501;DHT22;2263;54.654;9.410;2023-02-28T11:08:33;7.50;93.10
4501;DHT22;2263;54.654;9.410;2023-02-28T11:11:19;7.50;92.90
4501;DHT22;2263;54.654;9.410;2023-02-28T11:14:06;7.50;92.90
4501;DHT22;2263;54.654;9.410;2023-02-28T11:17:03;7.50;92.80
4501;DHT22;2263;54.654;9.410;2023-02-28T11:20:18;7.50;92.80
4501;DHT22;2263;54.654;9.410;2023-02-28T11:23:05;7.50;92.90
4501;DHT22;2263;54.654;9.410;2023-02-28T11:25:58;7.50;92.90
4501;DHT22;2263;54.654;9.410;2023-02-28T11:28:43;7.50;92.80
4501;DHT22;2263;54.654;9.410;2023-02-28T11:31:28;7.50;92.90
4501;DHT22;2263;54.654;9.410;2023-02-28T11:34:35;7.50;93.00
4501;DHT22;2263;54.654;9.410;2023-02-28T11:37:20;7.50;92.90
4501;DHT22;2263;54.654;9.410;2023-02-28T11:40:15;7.60;93.00
4501;DHT22;2263;54.654;9.410;2023-02-28T11:46:41;7.60;93.00
4501;DHT22;2263;54.654;9.410;2023-02-28T11:52:42;7.70;92.90
4501;DHT22;2263;54.654;9.410;2023-02-28T11:55:42;7.70;92.90
4501;DHT22;2263;54.654;9.410;2023-02-28T12:05:24;7.80;92.90
4501;DHT22;2263;54.654;9.410;2023-02-28T12:21:00;7.90;92.90
4501;DHT22;2263;54.654;9.410;2023-02-28T12:24:15;8.00;93.10
4501;DHT22;2263;54.654;9.410;2023-02-28T12:27:03;8.00;93.30
4501;DHT22;2263;54.654;9.410;2023-02-28T12:30:04;8.10;93.20
4501;DHT22;2263;54.654;9.410;2023-02-28T12:33:07;8.20;93.20
4501;DHT22;2263;54.654;9.410;2023-02-28T12:35:57;8.20;93.10
4501;DHT22;2263;54.654;9.410;2023-02-28T12:38:47;8.20;92.90
4501;DHT22;2263;54.654;9.410;2023-02-28T12:41:46;8.30;93.20
4501;DHT22;2263;54.654;9.410;2023-02-28T12:44:35;8.30;93.20
4501;DHT22;2263;54.654;9.410;2023-02-28T12:47:23;8.30;93.00
4501;DHT22;2263;54.654;9.410;2023-02-28T12:50:10;8.40;93.20
4501;DHT22;2263;54.654;9.410;2023-02-28T12:59:00;8.50;93.20
4501;DHT22;2263;54.654;9.410;2023-02-28T13:05:24;8.50;93.20
4501;DHT22;2263;54.654;9.410;2023-02-28T13:10:57;8.60;93.10
4501;DHT22;2263;54.654;9.410;2023-02-28T13:13:44;8.60;93.00
4501;DHT22;2263;54.654;9.410;2023-02-28T13:16:55;8.60;92.90
4501;DHT22;2263;54.654;9.410;2023-02-28T13:22:47;8.60;92.80
4501;DHT22;2263;54.654;9.410;2023-02-28T13:37:41;8.70;93.10
4501;DHT22;2263;54.654;9.410;2023-02-28T13:43:12;8.70;93.20
4501;DHT22;2263;54.654;9.410;2023-02-28T13:46:10;8.70;93.10
4501;DHT22;2263;54.654;9.410;2023-02-28T13:48:54;8.70;93.00
4501;DHT22;2263;54.654;9.410;2023-02-28T13:51:43;8.70;93.00
4501;DHT22;2263;54.654;9.410;2023-02-28T13:54:40;8.70;93.10
4501;DHT22;2263;54.654;9.410;2023-02-28T13:58:19;8.70;93.10
4501;DHT22;2263;54.654;9.410;2023-02-28T14:07:42;8.70;93.10
4501;DHT22;2263;54.654;9.410;2023-02-28T14:10:43;8.70;93.00
4501;DHT22;2263;54.654;9.410;2023-02-28T14:13:45;8.70;93.10
4501;DHT22;2263;54.654;9.410;2023-02-28T14:16:47;8.70;93.00
4501;DHT22;2263;54.654;9.410;2023-02-28T14:19:36;8.70;93.30
4501;DHT22;2263;54.654;9.410;2023-02-28T14:25:33;8.70;92.90
4501;DHT22;2263;54.654;9.410;2023-02-28T14:38:22;8.80;92.80
4501;DHT22;2263;54.654;9.410;2023-02-28T14:41:16;8.80;92.80
4501;DHT22;2263;54.654;9.410;2023-02-28T14:44:03;8.80;93.00
4501;DHT22;2263;54.654;9.410;2023-02-28T14:46:56;8.80;93.00
4501;DHT22;2263;54.654;9.410;2023-02-28T14:49:45;8.80;93.00
4501;DHT22;2263;54.654;9.410;2023-02-28T14:52:32;8.80;93.00
4501;DHT22;2263;54.654;9.410;2023-02-28T14:55:18;8.80;93.00
4501;DHT22;2263;54.654;9.410;2023-02-28T14:58:06;8.80;92.90
4501;DHT22;2263;54.654;9.410;2023-02-28T15:00:52;8.80;93.00
4501;DHT22;2263;54.654;9.410;2023-02-28T15:03:39;8.80;93.00
4501;DHT22;2263;54.654;9.410;2023-02-28T15:06:23;8.80;93.10
4501;DHT22;2263;54.654;9.410;2023-02-28T15:09:14;8.80;93.00
4501;DHT22;2263;54.654;9.410;2023-02-28T15:11:59;8.90;93.10
4501;DHT22;2263;54.654;9.410;2023-02-28T15:14:44;8.90;93.00
4501;DHT22;2263;54.654;9.410;2023-02-28T15:17:29;8.90;93.10
4501;DHT22;2263;54.654;9.410;2023-02-28T15:20:14;8.90;93.00
4501;DHT22;2263;54.654;9.410;2023-02-28T15:22:59;8.90;93.10
4501;DHT22;2263;54.654;9.410;2023-02-28T15:25:44;8.90;93.00
4501;DHT22;2263;54.654;9.410;2023-02-28T15:28:28;8.90;92.90
4501;DHT22;2263;54.654;9.410;2023-02-28T15:32:07;8.90;92.90
4501;DHT22;2263;54.654;9.410;2023-02-28T15:34:38;8.90;92.80
4501;DHT22;2263;54.654;9.410;2023-02-28T15:38:12;8.90;92.90
4501;DHT22;2263;54.654;9.410;2023-02-28T15:40:49;8.90;92.70
4501;DHT22;2263;54.654;9.410;2023-02-28T15:43:40;8.80;92.50
4501;DHT22;2263;54.654;9.410;2023-02-28T15:46:25;8.80;92.60
4501;DHT22;2263;54.654;9.410;2023-02-28T15:49:18;8.80;92.60
4501;DHT22;2263;54.654;9.410;2023-02-28T15:52:04;8.80;92.60
4501;DHT22;2263;54.654;9.410;2023-02-28T15:54:49;8.80;92.50
4501;DHT22;2263;54.654;9.410;2023-02-28T15:57:34;8.80;92.70
4501;DHT22;2263;54.654;9.410;2023-02-28T16:00:23;8.80;92.70
4501;DHT22;2263;54.654;9.410;2023-02-28T16:03:27;8.80;92.70
4501;DHT22;2263;54.654;9.410;2023-02-28T16:09:02;8.70;92.70
4501;DHT22;2263;54.654;9.410;2023-02-28T16:11:51;8.70;92.60
4501;DHT22;2263;54.654;9.410;2023-02-28T16:14:36;8.70;92.60
4501;DHT22;2263;54.654;9.410;2023-02-28T16:17:28;8.70;92.60
4501;DHT22;2263;54.654;9.410;2023-02-28T16:20:25;8.70;92.60
4501;DHT22;2263;54.654;9.410;2023-02-28T16:23:10;8.70;92.40
4501;DHT22;2263;54.654;9.410;2023-02-28T16:25:55;8.70;92.50
4501;DHT22;2263;54.654;9.410;2023-02-28T16:28:39;8.70;92.50
4501;DHT22;2263;54.654;9.410;2023-02-28T16:31:24;8.70;92.50
4501;DHT22;2263;54.654;9.410;2023-02-28T16:34:08;8.70;92.50
4501;DHT22;2263;54.654;9.410;2023-02-28T16:36:53;8.70;92.50
4501;DHT22;2263;54.654;9.410;2023-02-28T16:39:38;8.70;92.50
4501;DHT22;2263;54.654;9.410;2023-02-28T16:42:25;8.70;92.40
4501;DHT22;2263;54.654;9.410;2023-02-28T16:45:30;8.60;92.30
4501;DHT22;2263;54.654;9.410;2023-02-28T16:48:16;8.70;92.30
4501;DHT22;2263;54.654;9.410;2023-02-28T16:51:00;8.60;92.20
4501;DHT22;2263;54.654;9.410;2023-02-28T16:53:45;8.60;92.10
4501;DHT22;2263;54.654;9.410;2023-02-28T16:56:29;8.60;92.00
4501;DHT22;2263;54.654;9.410;2023-02-28T16:59:24;8.60;92.00
4501;DHT22;2263;54.654;9.410;2023-02-28T17:02:14;8.60;92.00
4501;DHT22;2263;54.654;9.410;2023-02-28T17:04:59;8.60;91.90
4501;DHT22;2263;54.654;9.410;2023-02-28T17:07:44;8.50;91.70
4501;DHT22;2263;54.654;9.410;2023-02-28T17:10:29;8.50;91.70
4501;DHT22;2263;54.654;9.410;2023-02-28T17:13:13;8.50;91.70
4501;DHT22;2263;54.654;9.410;2023-02-28T17:15:57;8.50;91.60
4501;DHT22;2263;54.654;9.410;2023-02-28T17:18:42;8.50;91.40
4501;DHT22;2263;54.654;9.410;2023-02-28T17:21:27;8.50;91.40
4501;DHT22;2263;54.654;9.410;2023-02-28T17:24:12;8.40;91.30
4501;DHT22;2263;54.654;9.410;2023-02-28T17:26:57;8.40;91.10
4501;DHT22;2263;54.654;9.410;2023-02-28T17:29:41;8.40;91.20
4501;DHT22;2263;54.654;9.410;2023-02-28T17:32:26;8.40;91.00
4501;DHT22;2263;54.654;9.410;2023-02-28T17:35:12;8.40;91.00
4501;DHT22;2263;54.654;9.410;2023-02-28T17:37:57;8.40;91.00
4501;DHT22;2263;54.654;9.410;2023-02-28T17:40:41;8.30;90.90
4501;DHT22;2263;54.654;9.410;2023-02-28T17:43:26;8.30;90.70
4501;DHT22;2263;54.654;9.410;2023-02-28T17:46:22;8.30;90.70
4501;DHT22;2263;54.654;9.410;2023-02-28T17:49:08;8.30;90.60
4501;DHT22;2263;54.654;9.410;2023-02-28T17:51:53;8.30;90.50
4501;DHT22;2263;54.654;9.410;2023-02-28T17:54:38;8.20;90.80
4501;DHT22;2263;54.654;9.410;2023-02-28T17:57:25;8.20;90.50
4501;DHT22;2263;54.654;9.410;2023-02-28T18:00:14;8.20;90.40
4501;DHT22;2263;54.654;9.410;2023-02-28T18:02:59;8.20;90.30
4501;DHT22;2263;54.654;9.410;2023-02-28T18:05:44;8.20;90.30
4501;DHT22;2263;54.654;9.410;2023-02-28T18:08:29;8.20;90.30
4501;DHT22;2263;54.654;9.410;2023-02-28T18:11:15;8.10;90.20
4501;DHT22;2263;54.654;9.410;2023-02-28T18:14:02;8.10;90.10
4501;DHT22;2263;54.654;9.410;2023-02-28T18:16:47;8.10;90.00
4501;DHT22;2263;54.654;9.410;2023-02-28T18:19:34;8.10;90.00
4501;DHT22;2263;54.654;9.410;2023-02-28T18:22:19;8.10;90.00
4501;DHT22;2263;54.654;9.410;2023-02-28T18:25:05;8.00;89.70
4501;DHT22;2263;54.654;9.410;2023-02-28T18:27:49;8.00;89.70
4501;DHT22;2263;54.654;9.410;2023-02-28T18:30:37;8.00;89.60
4501;DHT22;2263;54.654;9.410;2023-02-28T18:33:21;8.00;89.60
4501;DHT22;2263;54.654;9.410;2023-02-28T18:36:06;7.90;89.20
4501;DHT22;2263;54.654;9.410;2023-02-28T18:38:51;7.90;89.40
4501;DHT22;2263;54.654;9.410;2023-02-28T18:41:36;7.90;89.00
4501;DHT22;2263;54.654;9.410;2023-02-28T18:44:20;7.90;88.80
4501;DHT22;2263;54.654;9.410;2023-02-28T18:47:05;7.90;88.80
4501;DHT22;2263;54.654;9.410;2023-02-28T18:49:50;7.90;88.70
4501;DHT22;2263;54.654;9.410;2023-02-28T18:52:34;7.80;88.50
4501;DHT22;2263;54.654;9.410;2023-02-28T18:55:22;7.80;88.60
4501;DHT22;2263;54.654;9.410;2023-02-28T18:58:07;7.80;88.30
4501;DHT22;2263;54.654;9.410;2023-02-28T19:00:52;7.80;88.70
4501;DHT22;2263;54.654;9.410;2023-02-28T19:03:38;7.70;88.20
4501;DHT22;2263;54.654;9.410;2023-02-28T19:06:23;7.70;88.20
4501;DHT22;2263;54.654;9.410;2023-02-28T19:09:08;7.70;88.30
4501;DHT22;2263;54.654;9.410;2023-02-28T19:11:52;7.70;88.30
4501;DHT22;2263;54.654;9.410;2023-02-28T19:14:37;7.70;88.00
4501;DHT22;2263;54.654;9.410;2023-02-28T19:17:22;7.70;88.10
4501;DHT22;2263;54.654;9.410;2023-02-28T19:20:07;7.60;87.70
4501;DHT22;2263;54.654;9.410;2023-02-28T19:22:52;7.60;87.80
4501;DHT22;2263;54.654;9.410;2023-02-28T19:25:40;7.60;87.90
4501;DHT22;2263;54.654;9.410;2023-02-28T19:28:28;7.60;87.70
4501;DHT22;2263;54.654;9.410;2023-02-28T19:31:22;7.60;87.60
4501;DHT22;2263;54.654;9.410;2023-02-28T19:34:07;7.50;87.20
4501;DHT22;2263;54.654;9.410;2023-02-28T19:36:51;7.50;87.30
4501;DHT22;2263;54.654;9.410;2023-02-28T19:39:36;7.50;87.10
4501;DHT22;2263;54.654;9.410;2023-02-28T19:42:27;7.50;87.10
4501;DHT22;2263;54.654;9.410;2023-02-28T19:45:16;7.40;86.90
4501;DHT22;2263;54.654;9.410;2023-02-28T19:48:00;7.40;87.00
4501;DHT22;2263;54.654;9.410;2023-02-28T19:50:45;7.40;86.80
4501;DHT22;2263;54.654;9.410;2023-02-28T19:53:30;7.40;87.00
4501;DHT22;2263;54.654;9.410;2023-02-28T19:56:15;7.40;86.70
4501;DHT22;2263;54.654;9.410;2023-02-28T19:58:59;7.30;86.60
4501;DHT22;2263;54.654;9.410;2023-02-28T20:01:44;7.30;86.20
4501;DHT22;2263;54.654;9.410;2023-02-28T20:04:29;7.30;86.60
4501;DHT22;2263;54.654;9.410;2023-02-28T20:07:14;7.30;86.60
4501;DHT22;2263;54.654;9.410;2023-02-28T20:09:59;7.20;86.00
4501;DHT22;2263;54.654;9.410;2023-02-28T20:12:43;7.20;86.00
4501;DHT22;2263;54.654;9.410;2023-02-28T20:15:28;7.20;86.00
4501;DHT22;2263;54.654;9.410;2023-02-28T20:18:13;7.20;86.00
4501;DHT22;2263;54.654;9.410;2023-02-28T20:20:59;7.10;85.70
4501;DHT22;2263;54.654;9.410;2023-02-28T20:23:45;7.10;85.50
4501;DHT22;2263;54.654;9.410;2023-02-28T20:26:31;7.10;85.60
4501;DHT22;2263;54.654;9.410;2023-02-28T20:29:16;7.10;85.50
4501;DHT22;2263;54.654;9.410;2023-02-28T20:32:01;7.10;85.70
4501;DHT22;2263;54.654;9.410;2023-02-28T20:34:46;7.00;85.40
4501;DHT22;2263;54.654;9.410;2023-02-28T20:37:30;7.00;85.00
4501;DHT22;2263;54.654;9.410;2023-02-28T20:40:15;7.00;84.80